Time;durP1;ratioP1;P1;durP2;ratioP2;P2;SDS_P1;SDS_P2;PMS_P1;PMS_P2;Temp;Humidity;BMP_temperature;BMP_pressure;BME280_temperature;BME280_humidity;BME280_pressure;Samples;Min_cycle;Max_cycle;Signal;HPM_P1;HPM_P2
2024/01/14 00:00:20;;;;;;;4.37;3.97;;;13.60;73.60;;;;;;4915606;29;20238;-73
2024/01/14 00:02:45;;;;;;;4.57;4.03;;;13.50;73.60;;;;;;4916389;29;20456;-74
2024/01/14 00:05:11;;;;;;;4.37;3.90;;;13.50;73.60;;;;;;4917890;29;20894;-74
2024/01/14 00:07:37;;;;;;;4.80;4.07;;;13.50;73.60;;;;;;4917888;29;20226;-74
2024/01/14 00:10:05;;;;;;;5.23;4.10;;;13.50;73.50;;;;;;4918127;29;20183;-73
2024/01/14 00:12:31;;;;;;;4.30;3.90;;;13.50;73.60;;;;;;4918674;29;20179;-73
2024/01/14 00:14:57;;;;;;;5.47;4.57;;;13.50;73.60;;;;;;4918377;29;20206;-73
2024/01/14 00:17:23;;;;;;;4.87;4.37;;;13.50;73.70;;;;;;4919497;29;20194;-73
2024/01/14 00:19:50;;;;;;;4.67;4.23;;;13.50;73.80;;;;;;4919558;29;20211;-74
2024/01/14 00:22:16;;;;;;;5.03;3.93;;;13.50;73.80;;;;;;4917977;29;20175;-73
2024/01/14 00:24:43;;;;;;;4.67;3.90;;;13.50;73.80;;;;;;4917026;29;20249;-73
2024/01/14 00:27:08;;;;;;;5.43;4.53;;;13.50;73.80;;;;;;4915864;29;20171;-73
2024/01/14 00:29:36;;;;;;;4.40;4.00;;;13.50;73.80;;;;;;4915824;29;20178;-73
2024/01/14 00:32:02;;;;;;;4.70;4.20;;;13.50;73.80;;;;;;4916723;29;20179;-73
2024/01/14 00:34:28;;;;;;;4.17;3.70;;;13.50;73.70;;;;;;4915861;29;20214;-73
2024/01/14 00:36:53;;;;;;;5.97;4.30;;;13.50;73.90;;;;;;4916191;29;20606;-73
2024/01/14 00:39:19;;;;;;;4.40;3.60;;;13.50;73.70;;;;;;4916543;29;20242;-73
2024/01/14 00:41:45;;;;;;;5.53;4.17;;;13.50;73.70;;;;;;4918252;29;20173;-73
2024/01/14 00:44:11;;;;;;;4.93;4.33;;;13.40;73.70;;;;;;4917591;29;20434;-73
2024/01/14 00:46:38;;;;;;;5.27;3.80;;;13.40;73.40;;;;;;4917998;29;20197;-70
2024/01/14 00:49:04;;;;;;;5.10;4.53;;;13.50;73.60;;;;;;4918837;29;20189;-70
2024/01/14 00:51:30;;;;;;;5.77;4.20;;;13.50;73.60;;;;;;4919143;29;20616;-70
2024/01/14 00:53:56;;;;;;;4.67;3.90;;;13.40;73.50;;;;;;4917647;29;20273;-72
2024/01/14 00:56:21;;;;;;;4.57;3.83;;;13.40;73.60;;;;;;4918487;29;20174;-73
2024/01/14 00:58:48;;;;;;;5.37;4.30;;;13.40;73.50;;;;;;4918792;29;20319;-72
2024/01/14 01:01:13;;;;;;;4.87;4.37;;;13.40;73.50;;;;;;4919126;29;20186;-72
2024/01/14 01:03:39;;;;;;;4.70;4.10;;;13.40;73.50;;;;;;4918538;29;20467;-72
2024/01/14 01:06:05;;;;;;;4.77;4.20;;;13.40;73.40;;;;;;4918227;29;20177;-72
2024/01/14 01:08:32;;;;;;;4.77;4.03;;;13.40;73.40;;;;;;4918300;29;20199;-72
2024/01/14 01:10:58;;;;;;;4.57;4.03;;;13.40;73.40;;;;;;4917756;29;20276;-72
2024/01/14 01:13:23;;;;;;;5.63;4.00;;;13.40;73.40;;;;;;4918222;29;20325;-72
2024/01/14 01:15:49;;;;;;;4.33;3.90;;;13.40;73.40;;;;;;4919251;29;20224;-71
2024/01/14 01:18:15;;;;;;;4.73;4.20;;;13.40;73.50;;;;;;4918315;29;20191;-71
2024/01/14 01:20:41;;;;;;;4.73;4.23;;;13.40;73.50;;;;;;4918505;29;20217;-71
2024/01/14 01:23:06;;;;;;;5.27;4.23;;;13.40;73.30;;;;;;4919142;29;20184;-71
2024/01/14 01:25:32;;;;;;;5.10;4.33;;;13.40;73.30;;;;;;4918456;29;20189;-72
2024/01/14 01:27:58;;;;;;;6.10;4.13;;;13.40;73.30;;;;;;4917468;29;20177;-71
2024/01/14 01:30:24;;;;;;;4.37;3.90;;;13.40;73.30;;;;;;4917329;29;20598;-72
2024/01/14 01:32:49;;;;;;;4.93;4.27;;;13.40;73.30;;;;;;4918781;29;20479;-72
2024/01/14 01:35:15;;;;;;;5.03;4.20;;;13.40;73.20;;;;;;4917128;29;20366;-72
2024/01/14 01:37:41;;;;;;;5.77;4.17;;;13.40;73.30;;;;;;4917798;29;20182;-72
2024/01/14 01:40:09;;;;;;;4.60;3.80;;;13.40;73.20;;;;;;4917889;29;20227;-72
2024/01/14 01:42:35;;;;;;;6.10;4.20;;;13.40;73.40;;;;;;4917466;29;20180;-72
2024/01/14 01:45:01;;;;;;;5.37;4.20;;;13.40;73.20;;;;;;4917410;29;20178;-72
2024/01/14 01:47:27;;;;;;;4.47;3.50;;;13.40;73.20;;;;;;4916784;29;20182;-72
2024/01/14 01:49:53;;;;;;;4.23;3.83;;;13.30;73.10;;;;;;4915751;29;20329;-72
2024/01/14 01:52:20;;;;;;;4.80;4.27;;;13.40;73.60;;;;;;4915062;29;20499;-72
2024/01/14 01:54:49;;;;;;;4.97;4.10;;;13.40;73.10;;;;;;4915193;29;20484;-72
2024/01/14 01:57:16;;;;;;;5.30;4.30;;;13.30;72.90;;;;;;4915922;29;20183;-70
2024/01/14 01:59:43;;;;;;;4.33;3.70;;;13.30;73.00;;;;;;4916191;29;20214;-73
2024/01/14 02:02:10;;;;;;;4.63;3.90;;;13.40;73.20;;;;;;4914776;29;20226;-73
2024/01/14 02:04:36;;;;;;;4.27;3.60;;;13.30;73.00;;;;;;4915792;29;20282;-71
2024/01/14 02:07:02;;;;;;;5.03;4.07;;;13.30;73.10;;;;;;4915708;29;20441;-71
2024/01/14 02:09:28;;;;;;;4.60;4.20;;;13.30;73.20;;;;;;4917050;29;20189;-71
2024/01/14 02:11:54;;;;;;;4.37;3.97;;;13.30;73.10;;;;;;4917211;29;20206;-72
2024/01/14 02:14:20;;;;;;;4.30;3.77;;;13.30;73.10;;;;;;4917977;29;20199;-73
2024/01/14 02:16:46;;;;;;;4.80;4.07;;;13.30;73.10;;;;;;4918865;29;20557;-74
2024/01/14 02:19:13;;;;;;;4.30;3.77;;;13.30;73.10;;;;;;4903012;29;20247;-74
2024/01/14 02:21:48;;;;;;;4.60;3.80;;;13.30;73.10;;;;;;4916988;29;20462;-74
2024/01/14 02:24:23;;;;;;;4.43;3.70;;;13.30;73.10;;;;;;4917343;29;20183;-74
2024/01/14 02:26:49;;;;;;;4.30;3.90;;;13.30;73.10;;;;;;4917863;29;20187;-74
2024/01/14 02:29:15;;;;;;;4.17;3.70;;;13.30;73.00;;;;;;4917511;29;20201;-71
2024/01/14 02:31:41;;;;;;;4.17;3.53;;;13.30;73.10;;;;;;4917651;29;20272;-72
2024/01/14 02:34:07;;;;;;;4.30;3.67;;;13.30;73.10;;;;;;4917832;29;20288;-71
2024/01/14 02:36:33;;;;;;;4.90;3.70;;;13.30;73.00;;;;;;4917030;29;20189;-72
2024/01/14 02:38:59;;;;;;;4.00;3.60;;;13.30;72.90;;;;;;4917142;29;20230;-72
2024/01/14 02:41:25;;;;;;;4.33;3.77;;;13.30;73.00;;;;;;4918093;29;20178;-72
2024/01/14 02:43:51;;;;;;;3.73;3.43;;;13.30;73.00;;;;;;4916538;29;20176;-72
2024/01/14 02:46:16;;;;;;;3.63;3.33;;;13.30;73.00;;;;;;4913407;29;20193;-72
2024/01/14 02:48:42;;;;;;;5.37;3.80;;;13.20;73.00;;;;;;4913246;29;20305;-72
2024/01/14 02:51:08;;;;;;;3.57;3.27;;;13.30;72.90;;;;;;4914417;29;20183;-72
2024/01/14 02:53:33;;;;;;;3.93;3.53;;;13.30;73.00;;;;;;4914229;29;20610;-72
2024/01/14 02:55:59;;;;;;;3.60;3.30;;;13.30;73.00;;;;;;4915803;29;20265;-72
2024/01/14 02:58:25;;;;;;;4.27;3.77;;;13.20;73.00;;;;;;4914532;29;20187;-72
2024/01/14 03:00:51;;;;;;;3.80;3.40;;;13.30;73.10;;;;;;4915765;29;20174;-71
2024/01/14 03:03:17;;;;;;;3.40;3.10;;;13.20;73.10;;;;;;4915762;29;20175;-72
2024/01/14 03:05:43;;;;;;;3.97;3.57;;;13.20;72.90;;;;;;4915947;29;20628;-73
2024/01/14 03:08:09;;;;;;;3.30;2.93;;;13.20;72.90;;;;;;4916211;29;20169;-73
2024/01/14 03:10:34;;;;;;;4.50;3.37;;;13.20;73.00;;;;;;4916343;29;20236;-73
2024/01/14 03:13:00;;;;;;;3.43;3.13;;;13.20;73.10;;;;;;4917268;29;20269;-73
2024/01/14 03:15:25;;;;;;;3.50;3.20;;;13.20;72.90;;;;;;4917323;29;20209;-73
2024/01/14 03:17:52;;;;;;;3.33;3.03;;;13.20;73.00;;;;;;4918162;29;20244;-73
2024/01/14 03:20:18;;;;;;;3.23;2.93;;;13.20;73.00;;;;;;4921150;29;20676;-72
2024/01/14 03:22:43;;;;;;;3.87;3.50;;;13.20;73.10;;;;;;4920940;29;20272;-73
2024/01/14 03:25:10;;;;;;;3.80;3.20;;;13.20;73.10;;;;;;4919626;29;20432;-73
2024/01/14 03:27:35;;;;;;;3.90;3.50;;;13.20;73.20;;;;;;4920229;29;20567;-73
2024/01/14 03:30:02;;;;;;;3.60;3.13;;;13.20;73.10;;;;;;4918164;29;20181;-73
2024/01/14 03:32:28;;;;;;;3.87;3.47;;;13.20;73.20;;;;;;4918398;29;20186;-72
2024/01/14 03:34:54;;;;;;;4.10;3.43;;;13.20;73.10;;;;;;4917951;29;20207;-72
2024/01/14 03:37:19;;;;;;;3.50;3.17;;;13.20;73.10;;;;;;4919266;29;20186;-73
2024/01/14 03:39:45;;;;;;;4.57;3.57;;;13.20;73.10;;;;;;4918642;29;20304;-73
2024/01/14 03:42:11;;;;;;;3.70;3.37;;;13.20;73.10;;;;;;4919490;29;20184;-73
2024/01/14 03:44:37;;;;;;;3.50;3.20;;;13.20;73.00;;;;;;4919656;29;20184;-73
2024/01/14 03:47:02;;;;;;;3.57;3.27;;;13.10;72.90;;;;;;4919037;29;20177;-73
2024/01/14 03:49:30;;;;;;;3.60;3.30;;;13.20;73.00;;;;;;4919071;29;20185;-72
2024/01/14 03:51:56;;;;;;;3.33;3.03;;;13.10;72.80;;;;;;4919177;29;20596;-72
2024/01/14 03:54:22;;;;;;;4.07;3.53;;;13.10;73.00;;;;;;4918851;29;20340;-72
2024/01/14 03:56:47;;;;;;;3.77;3.13;;;13.10;73.00;;;;;;4919005;29;20184;-73
2024/01/14 03:59:13;;;;;;;3.87;3.27;;;13.10;73.00;;;;;;4919532;29;20481;-72
2024/01/14 04:01:39;;;;;;;3.57;3.23;;;13.10;72.90;;;;;;4919084;29;20183;-71
2024/01/14 04:04:05;;;;;;;3.50;3.20;;;13.10;73.00;;;;;;4919314;29;20189;-71
2024/01/14 04:06:31;;;;;;;3.20;2.90;;;13.10;73.00;;;;;;4919152;29;20183;-72
2024/01/14 04:08:57;;;;;;;3.00;2.70;;;13.10;73.00;;;;;;4919215;29;20439;-72
2024/01/14 04:11:23;;;;;;;3.80;3.40;;;13.10;73.00;;;;;;4919890;29;20264;-71
2024/01/14 04:13:49;;;;;;;3.40;3.10;;;13.10;73.00;;;;;;4920322;29;20181;-72
2024/01/14 04:16:14;;;;;;;3.60;3.30;;;13.10;73.00;;;;;;4920337;29;20276;-72
2024/01/14 04:18:40;;;;;;;3.57;3.27;;;13.10;72.90;;;;;;4921178;29;20301;-72
2024/01/14 04:21:06;;;;;;;3.70;3.23;;;13.10;72.90;;;;;;4919996;29;20178;-71
2024/01/14 04:23:31;;;;;;;4.90;3.10;;;13.10;72.90;;;;;;4920917;29;20387;-72
2024/01/14 04:25:58;;;;;;;3.10;2.80;;;13.10;72.90;;;;;;4920297;29;20214;-74
2024/01/14 04:28:24;;;;;;;3.40;3.10;;;13.10;73.00;;;;;;4918749;29;20473;-73
2024/01/14 04:30:52;;;;;;;3.47;3.17;;;13.10;73.00;;;;;;4919649;29;20175;-72
2024/01/14 04:33:19;;;;;;;3.47;3.10;;;13.10;72.90;;;;;;4918522;29;20280;-72
2024/01/14 04:35:44;;;;;;;3.37;3.07;;;13.10;72.90;;;;;;4919554;29;20273;-72
2024/01/14 04:38:11;;;;;;;3.43;3.13;;;13.10;72.80;;;;;;4918865;29;20643;-73
2024/01/14 04:40:36;;;;;;;3.37;3.07;;;13.00;72.90;;;;;;4920030;29;20610;-72
2024/01/14 04:43:03;;;;;;;4.23;2.93;;;13.10;72.90;;;;;;4919432;29;20179;-71
2024/01/14 04:45:28;;;;;;;3.53;2.90;;;13.10;72.90;;;;;;4919944;29;20259;-72
2024/01/14 04:47:54;;;;;;;3.53;2.80;;;13.10;73.00;;;;;;4918149;29;20299;-72
2024/01/14 04:50:20;;;;;;;3.37;3.07;;;13.10;73.00;;;;;;4920078;29;20529;-71
2024/01/14 04:52:46;;;;;;;3.30;3.00;;;13.10;72.90;;;;;;4919454;29;20648;-71
2024/01/14 04:55:13;;;;;;;3.40;3.10;;;13.00;72.90;;;;;;4919048;29;20549;-71
2024/01/14 04:57:38;;;;;;;3.53;3.00;;;13.00;72.90;;;;;;4919479;29;20184;-71
2024/01/14 05:00:05;;;;;;;3.70;3.30;;;13.10;72.90;;;;;;4919375;29;20295;-71
2024/01/14 05:02:32;;;;;;;3.30;3.00;;;13.00;72.90;;;;;;4918739;29;20583;-72
2024/01/14 05:04:57;;;;;;;3.40;3.10;;;13.00;72.90;;;;;;4918682;29;20183;-71
2024/01/14 05:07:23;;;;;;;2.90;2.60;;;13.00;73.00;;;;;;4917951;29;20208;-71
2024/01/14 05:09:49;;;;;;;3.10;2.80;;;13.00;73.00;;;;;;4917603;29;20268;-71
2024/01/14 05:12:15;;;;;;;3.30;3.00;;;13.00;73.00;;;;;;4918269;29;20282;-71
2024/01/14 05:14:40;;;;;;;3.30;3.00;;;13.00;73.00;;;;;;4917229;29;20581;-71
2024/01/14 05:17:06;;;;;;;4.67;3.10;;;13.00;73.00;;;;;;4917766;29;20190;-71
2024/01/14 05:19:32;;;;;;;3.53;3.23;;;13.00;73.10;;;;;;4917861;29;20216;-71
2024/01/14 05:21:58;;;;;;;3.20;2.90;;;13.00;73.10;;;;;;4918662;29;20246;-71
2024/01/14 05:24:23;;;;;;;3.37;3.07;;;13.00;73.00;;;;;;4918166;29;20210;-71
2024/01/14 05:26:49;;;;;;;3.37;3.00;;;13.00;72.90;;;;;;4917041;29;20206;-71
2024/01/14 05:29:15;;;;;;;3.60;3.30;;;13.00;73.00;;;;;;4916575;29;20179;-71
2024/01/14 05:31:41;;;;;;;3.67;3.17;;;13.00;73.00;;;;;;4916998;29;20202;-71
2024/01/14 05:34:06;;;;;;;3.87;3.47;;;13.00;72.90;;;;;;4917232;29;20216;-71
2024/01/14 05:36:32;;;;;;;3.57;3.23;;;13.00;72.90;;;;;;4916918;29;20558;-71
2024/01/14 05:38:58;;;;;;;3.90;3.50;;;13.00;73.00;;;;;;4916768;29;20216;-71
2024/01/14 05:41:23;;;;;;;3.43;3.13;;;13.00;72.90;;;;;;4917000;29;20173;-71
2024/01/14 05:43:50;;;;;;;4.37;3.47;;;13.00;72.90;;;;;;4916929;29;20466;-71
2024/01/14 05:46:16;;;;;;;3.93;3.53;;;12.90;72.80;;;;;;4918854;29;20176;-71
2024/01/14 05:48:41;;;;;;;4.40;3.73;;;13.00;72.90;;;;;;4917756;29;20469;-71
2024/01/14 05:51:09;;;;;;;3.90;3.50;;;12.90;72.90;;;;;;4918658;29;20180;-72
2024/01/14 05:53:35;;;;;;;4.00;3.60;;;12.90;72.90;;;;;;4917293;29;20189;-72
2024/01/14 05:56:02;;;;;;;3.67;3.30;;;13.00;73.00;;;;;;4917048;29;20188;-72
2024/01/14 05:58:28;;;;;;;3.80;3.23;;;13.00;73.00;;;;;;4917058;29;20191;-72
2024/01/14 06:00:54;;;;;;;3.77;3.30;;;12.90;72.90;;;;;;4915287;29;20181;-72
2024/01/14 06:03:19;;;;;;;4.53;3.40;;;13.00;73.00;;;;;;4917337;29;20180;-72
2024/01/14 06:05:45;;;;;;;4.20;3.67;;;13.00;72.90;;;;;;4915715;29;20193;-72
2024/01/14 06:08:11;;;;;;;3.87;3.57;;;12.90;72.90;;;;;;4915572;29;20518;-72
2024/01/14 06:10:38;;;;;;;4.07;3.67;;;12.90;73.00;;;;;;4916822;29;20189;-71
2024/01/14 06:13:04;;;;;;;4.10;3.70;;;12.90;72.90;;;;;;4917640;29;20188;-71
2024/01/14 06:15:30;;;;;;;4.33;3.93;;;12.90;72.90;;;;;;4917035;29;20575;-70
2024/01/14 06:17:56;;;;;;;3.50;3.17;;;12.90;73.00;;;;;;4917740;29;20258;-73
2024/01/14 06:20:22;;;;;;;4.17;3.77;;;12.90;72.90;;;;;;4918354;29;20778;-73
2024/01/14 06:22:47;;;;;;;4.00;3.60;;;12.90;72.90;;;;;;4917768;29;20186;-72
2024/01/14 06:25:13;;;;;;;4.47;3.80;;;12.90;72.90;;;;;;4917100;29;20209;-73
2024/01/14 06:27:41;;;;;;;4.07;3.67;;;12.90;72.90;;;;;;4917701;29;20478;-71
2024/01/14 06:30:08;;;;;;;4.63;3.57;;;12.90;73.00;;;;;;4916630;29;20186;-72
2024/01/14 06:32:34;;;;;;;4.43;3.60;;;12.90;73.00;;;;;;4915926;29;20287;-71
2024/01/14 06:35:00;;;;;;;4.07;3.67;;;12.90;72.90;;;;;;4916142;29;20278;-71
2024/01/14 06:37:26;;;;;;;4.53;4.07;;;12.90;73.10;;;;;;4916240;29;20171;-74
2024/01/14 06:39:52;;;;;;;4.30;3.90;;;12.90;73.10;;;;;;4917207;29;20215;-73
2024/01/14 06:42:17;;;;;;;4.23;3.83;;;12.90;73.00;;;;;;4917442;29;20185;-73
2024/01/14 06:44:43;;;;;;;4.63;3.67;;;12.90;73.10;;;;;;4917435;29;20188;-73
2024/01/14 06:47:09;;;;;;;4.00;3.50;;;12.90;73.00;;;;;;4917941;29;20184;-73
2024/01/14 06:49:35;;;;;;;3.93;3.53;;;12.90;73.00;;;;;;4918107;29;20184;-74
2024/01/14 06:52:00;;;;;;;3.60;3.30;;;12.80;72.90;;;;;;4917251;29;20201;-73
2024/01/14 06:54:26;;;;;;;3.97;3.57;;;12.90;72.90;;;;;;4920577;29;20183;-73
2024/01/14 06:56:52;;;;;;;4.20;3.80;;;12.80;72.80;;;;;;4920029;29;20194;-74
2024/01/14 06:59:18;;;;;;;5.00;3.67;;;12.90;73.00;;;;;;4919745;29;20220;-73
2024/01/14 07:01:48;;;;;;;4.00;3.60;;;12.90;73.00;;;;;;4920802;29;20196;-73
2024/01/14 07:04:14;;;;;;;4.37;3.97;;;12.90;73.00;;;;;;4921288;29;20172;-73
2024/01/14 07:06:40;;;;;;;4.17;3.47;;;12.90;73.00;;;;;;4919630;29;20195;-73
2024/01/14 07:09:10;;;;;;;4.20;3.53;;;12.80;72.90;;;;;;4918611;29;20186;-73
2024/01/14 07:11:36;;;;;;;3.97;3.57;;;12.80;73.00;;;;;;4920143;29;20258;-73
2024/01/14 07:14:02;;;;;;;3.87;3.57;;;12.80;72.90;;;;;;4920636;29;20197;-72
2024/01/14 07:16:29;;;;;;;4.37;3.60;;;12.80;72.90;;;;;;4920410;29;20205;-73
2024/01/14 07:18:55;;;;;;;4.10;3.70;;;12.80;72.90;;;;;;4920743;29;20205;-73
2024/01/14 07:21:22;;;;;;;4.20;3.80;;;12.80;72.90;;;;;;4919430;29;20477;-73
2024/01/14 07:23:49;;;;;;;3.90;3.53;;;12.80;72.90;;;;;;4918679;29;20498;-73
2024/01/14 07:26:17;;;;;;;3.67;3.27;;;12.80;73.00;;;;;;4919084;29;20200;-73
2024/01/14 07:28:42;;;;;;;3.77;3.47;;;12.80;73.00;;;;;;4917923;29;20190;-73
2024/01/14 07:31:09;;;;;;;4.20;3.47;;;12.80;73.00;;;;;;4918197;29;20200;-73
2024/01/14 07:33:35;;;;;;;3.67;3.37;;;12.80;73.00;;;;;;4916519;29;20191;-72
2024/01/14 07:36:01;;;;;;;4.10;3.57;;;12.80;73.10;;;;;;4915959;29;20187;-73
2024/01/14 07:38:27;;;;;;;3.60;3.30;;;12.80;73.10;;;;;;4917596;29;20182;-72
2024/01/14 07:40:52;;;;;;;3.90;3.50;;;12.80;73.10;;;;;;4917239;29;20194;-72
2024/01/14 07:43:18;;;;;;;3.77;3.40;;;12.80;73.00;;;;;;4917604;29;20566;-72
2024/01/14 07:45:44;;;;;;;3.90;3.40;;;12.80;73.00;;;;;;4918277;29;20262;-72
2024/01/14 07:48:10;;;;;;;4.20;3.77;;;12.80;73.00;;;;;;4917979;29;20174;-72
2024/01/14 07:50:35;;;;;;;3.83;3.53;;;12.80;73.00;;;;;;4916852;29;20185;-72
2024/01/14 07:53:01;;;;;;;4.23;3.83;;;12.80;73.00;;;;;;4919045;29;20695;-72
2024/01/14 07:55:27;;;;;;;4.23;3.80;;;12.80;72.90;;;;;;4917042;29;20585;-70
2024/01/14 07:57:53;;;;;;;4.00;3.60;;;12.80;73.00;;;;;;4917119;29;20572;-71
2024/01/14 08:00:18;;;;;;;4.40;4.00;;;12.80;73.00;;;;;;4916754;29;20209;-72
2024/01/14 08:02:44;;;;;;;3.97;3.60;;;12.80;73.00;;;;;;4916648;29;20173;-71
2024/01/14 08:05:11;;;;;;;4.10;3.57;;;12.80;73.10;;;;;;4915479;29;20610;-71
2024/01/14 08:07:36;;;;;;;3.77;3.40;;;12.80;73.00;;;;;;4914878;29;20174;-71
2024/01/14 08:10:02;;;;;;;4.60;4.10;;;12.80;73.00;;;;;;4915836;29;20191;-71
2024/01/14 08:12:28;;;;;;;3.77;3.47;;;12.80;73.20;;;;;;4914667;29;20187;-71
2024/01/14 08:14:54;;;;;;;4.60;3.77;;;12.80;73.10;;;;;;4914892;29;20192;-71
2024/01/14 08:17:20;;;;;;;4.53;3.67;;;12.80;73.10;;;;;;4916691;29;20285;-71
2024/01/14 08:19:46;;;;;;;5.07;4.10;;;12.80;73.10;;;;;;4917020;29;20604;-71
2024/01/14 08:22:11;;;;;;;4.53;3.80;;;12.80;73.10;;;;;;4917223;29;20187;-71
2024/01/14 08:24:41;;;;;;;5.57;3.60;;;12.80;73.20;;;;;;4917104;29;20182;-71
2024/01/14 08:27:07;;;;;;;5.03;3.57;;;12.80;73.10;;;;;;4917682;29;20174;-72
2024/01/14 08:29:32;;;;;;;4.40;3.70;;;12.80;73.30;;;;;;4916224;29;20189;-71
2024/01/14 08:31:58;;;;;;;4.63;4.13;;;12.70;73.20;;;;;;4916667;29;20192;-71
2024/01/14 08:34:25;;;;;;;4.23;3.80;;;12.70;73.20;;;;;;4918619;29;20212;-74
2024/01/14 08:36:51;;;;;;;4.40;3.73;;;12.70;73.10;;;;;;4917506;29;20519;-72
2024/01/14 08:39:16;;;;;;;4.80;4.23;;;12.70;73.10;;;;;;4915585;29;20209;-71
2024/01/14 08:41:42;;;;;;;4.33;3.93;;;12.70;73.20;;;;;;4915900;29;20181;-72
2024/01/14 08:44:10;;;;;;;4.70;4.20;;;12.70;73.10;;;;;;4916644;29;20194;-71
2024/01/14 08:46:40;;;;;;;4.50;3.90;;;12.70;73.20;;;;;;4916789;29;20187;-71
2024/01/14 08:49:05;;;;;;;4.30;3.40;;;12.70;73.40;;;;;;4916276;29;20193;-71
2024/01/14 08:51:32;;;;;;;4.07;3.67;;;12.70;73.30;;;;;;4916213;29;20181;-71
2024/01/14 08:54:00;;;;;;;6.53;3.80;;;12.70;73.30;;;;;;4915475;29;20404;-72
2024/01/14 08:56:28;;;;;;;4.20;3.80;;;12.70;73.40;;;;;;4915024;29;20182;-71
2024/01/14 08:58:55;;;;;;;4.03;3.67;;;12.70;73.50;;;;;;4915579;29;20236;-72
2024/01/14 09:01:21;;;;;;;4.23;3.83;;;12.70;73.90;;;;;;4915426;29;20548;-72
2024/01/14 09:03:46;;;;;;;4.17;3.77;;;12.70;74.20;;;;;;4914328;29;20241;-72
2024/01/14 09:06:12;;;;;;;3.60;3.30;;;12.70;74.30;;;;;;4916664;29;20180;-72
2024/01/14 09:08:38;;;;;;;4.17;3.53;;;12.70;74.50;;;;;;4915949;29;20177;-72
2024/01/14 09:11:04;;;;;;;3.67;3.37;;;12.70;74.40;;;;;;4917287;29;20228;-72
2024/01/14 09:13:30;;;;;;;7.07;3.67;;;12.70;74.60;;;;;;4917144;29;20177;-72
2024/01/14 09:15:56;;;;;;;4.67;3.43;;;12.70;74.60;;;;;;4914439;29;20200;-72
2024/01/14 09:18:25;;;;;;;4.10;3.70;;;12.70;74.80;;;;;;4917973;29;20181;-72
2024/01/14 09:20:51;;;;;;;3.80;3.30;;;12.70;74.70;;;;;;4919879;29;20214;-72
2024/01/14 09:23:18;;;;;;;3.97;3.50;;;12.70;74.90;;;;;;4920112;29;20191;-72
2024/01/14 09:25:45;;;;;;;3.73;3.30;;;12.70;74.90;;;;;;4917026;29;20312;-73
2024/01/14 09:28:11;;;;;;;4.23;3.47;;;12.70;75.00;;;;;;4914665;29;20176;-72
2024/01/14 09:30:36;;;;;;;3.93;3.53;;;12.70;75.00;;;;;;4915689;29;20188;-72
2024/01/14 09:33:02;;;;;;;3.43;3.13;;;12.70;75.00;;;;;;4914959;29;20584;-72
2024/01/14 09:35:28;;;;;;;4.07;3.30;;;12.70;75.20;;;;;;4916179;29;20252;-72
2024/01/14 09:37:54;;;;;;;3.90;3.40;;;12.70;75.20;;;;;;4915479;29;20189;-74
2024/01/14 09:40:20;;;;;;;3.70;3.40;;;12.70;75.40;;;;;;4915520;29;20213;-72
2024/01/14 09:42:50;;;;;;;4.37;3.37;;;12.90;80.30;;;;;;4914478;29;20269;-72
2024/01/14 09:45:16;;;;;;;6.67;3.60;;;12.90;78.40;;;;;;4915215;29;20470;-72
2024/01/14 09:47:44;;;;;;;4.37;3.67;;;12.90;77.50;;;;;;4915368;29;20271;-72
2024/01/14 09:50:13;;;;;;;3.23;2.93;;;12.90;77.50;;;;;;4915705;29;20190;-72
2024/01/14 09:52:41;;;;;;;3.87;3.47;;;12.80;77.30;;;;;;4913765;29;20192;-72
2024/01/14 09:55:07;;;;;;;6.20;3.63;;;12.80;77.40;;;;;;4914774;29;20192;-74
2024/01/14 09:57:35;;;;;;;4.57;3.40;;;12.80;77.50;;;;;;4915479;29;20567;-74
2024/01/14 10:00:05;;;;;;;4.63;3.07;;;12.80;77.60;;;;;;4915312;29;20475;-75
2024/01/14 10:02:34;;;;;;;4.53;3.70;;;12.80;77.60;;;;;;4915430;29;20207;-75
2024/01/14 10:05:00;;;;;;;4.33;3.37;;;12.80;77.50;;;;;;4915229;29;20179;-75
2024/01/14 10:07:27;;;;;;;4.43;3.30;;;12.80;77.70;;;;;;4913842;29;20178;-74
2024/01/14 10:09:53;;;;;;;4.07;3.40;;;12.80;78.60;;;;;;4911346;29;20222;-75
2024/01/14 10:12:19;;;;;;;5.27;3.90;;;12.80;78.50;;;;;;4913551;29;20297;-75
2024/01/14 10:14:55;;;;;;;4.47;3.80;;;12.90;79.80;;;;;;4912492;29;20345;-73
2024/01/14 10:17:21;;;;;;;6.90;3.90;;;12.80;80.50;;;;;;4911627;29;20205;-77
2024/01/14 10:19:54;;;;;;;4.73;3.30;;;12.90;80.10;;;;;;4914906;29;20209;-77
2024/01/14 10:22:23;;;;;;;4.97;3.43;;;12.90;80.30;;;;;;4913276;29;20183;-74
2024/01/14 10:24:51;;;;;;;7.90;4.10;;;12.90;80.10;;;;;;4913087;29;20188;-74
2024/01/14 10:27:17;;;;;;;9.60;4.03;;;12.90;80.50;;;;;;4912789;29;20362;-74
2024/01/14 10:29:44;;;;;;;6.27;3.63;;;12.90;80.40;;;;;;4912548;29;20428;-73
2024/01/14 10:32:09;;;;;;;7.20;4.03;;;12.90;80.60;;;;;;4911771;29;20460;-76
2024/01/14 10:34:35;;;;;;;9.27;4.13;;;12.90;80.60;;;;;;4913057;29;20272;-74
2024/01/14 10:37:01;;;;;;;6.63;4.00;;;12.90;83.50;;;;;;4912570;29;20284;-75
2024/01/14 10:39:31;;;;;;;8.20;3.97;;;13.00;82.80;;;;;;4914075;29;20651;-73
2024/01/14 10:41:57;;;;;;;5.53;3.80;;;13.00;82.50;;;;;;4914888;29;20184;-74
2024/01/14 10:44:23;;;;;;;5.37;3.90;;;13.00;82.80;;;;;;4914899;29;20188;-75
2024/01/14 10:46:52;;;;;;;9.40;3.97;;;13.00;83.10;;;;;;4913670;29;20544;-75
2024/01/14 10:49:24;;;;;;;6.23;4.17;;;13.00;82.90;;;;;;4914421;29;20185;-75
2024/01/14 10:51:57;;;;;;;4.80;3.90;;;13.00;82.50;;;;;;4914881;29;20183;-74
2024/01/14 10:54:47;;;;;;;5.57;4.10;;;13.00;82.50;;;;;;4914574;29;20581;-77
2024/01/14 10:57:32;;;;;;;6.00;3.60;;;13.00;82.00;;;;;;4914467;29;20185;-75
2024/01/14 11:00:04;;;;;;;7.20;3.93;;;13.00;82.50;;;;;;4912700;29;20210;-78
2024/01/14 11:02:33;;;;;;;10.37;4.33;;;13.00;81.50;;;;;;4914321;29;20280;-76
2024/01/14 11:05:01;;;;;;;12.07;4.33;;;13.00;81.20;;;;;;4912908;29;20193;-78
2024/01/14 11:07:28;;;;;;;6.43;4.40;;;13.00;81.10;;;;;;4913850;29;20173;-78
2024/01/14 11:09:55;;;;;;;5.00;3.97;;;13.00;81.20;;;;;;4914532;29;20185;-73
2024/01/14 11:12:44;;;;;;;8.47;4.10;;;13.00;81.30;;;;;;4914874;29;20276;-73
2024/01/14 11:15:26;;;;;;;7.53;4.37;;;13.10;82.30;;;;;;4913368;29;20209;-75
2024/01/14 11:18:06;;;;;;;6.93;3.80;;;13.10;81.60;;;;;;4912753;29;20261;-75
2024/01/14 11:20:36;;;;;;;9.83;4.23;;;13.10;81.40;;;;;;4904472;29;20271;-73
2024/01/14 11:23:03;;;;;;;6.10;3.80;;;13.10;81.40;;;;;;4899865;29;20178;-74
2024/01/14 11:25:33;;;;;;;8.13;4.00;;;13.10;81.40;;;;;;4899979;29;20188;-74
2024/01/14 11:28:01;;;;;;;7.53;4.17;;;13.10;81.30;;;;;;4898889;29;20242;-76
2024/01/14 11:31:02;;;;;;;10.77;4.40;;;13.10;81.10;;;;;;4900129;29;20507;-76
2024/01/14 11:33:42;;;;;;;8.10;3.63;;;13.10;80.80;;;;;;4899712;29;20174;-76
2024/01/14 11:36:09;;;;;;;8.37;3.80;;;13.10;80.70;;;;;;4896821;29;20174;-77
2024/01/14 11:38:44;;;;;;;7.73;3.63;;;13.10;80.20;;;;;;4894875;29;20187;-76
2024/01/14 11:41:30;;;;;;;10.80;4.00;;;13.10;80.00;;;;;;4897753;29;20511;-76
2024/01/14 11:44:09;;;;;;;8.77;4.07;;;13.10;79.70;;;;;;4893699;29;20249;-76
2024/01/14 11:46:42;;;;;;;6.27;4.03;;;13.10;79.20;;;;;;4894376;29;20188;-76
2024/01/14 11:49:11;;;;;;;8.37;3.90;;;13.10;78.90;;;;;;4894653;29;20463;-76
2024/01/14 11:51:43;;;;;;;6.10;3.97;;;13.10;78.60;;;;;;4895293;29;20179;-76
2024/01/14 11:54:10;;;;;;;7.13;3.50;;;13.10;78.30;;;;;;4894275;29;20642;-76
2024/01/14 11:56:36;;;;;;;5.90;3.80;;;13.10;77.90;;;;;;4895343;29;20229;-76
2024/01/14 11:59:11;;;;;;;8.37;3.70;;;13.10;77.60;;;;;;4895823;29;20217;-76
2024/01/14 12:01:37;;;;;;;5.77;3.43;;;13.10;77.30;;;;;;4917311;29;20279;-77
2024/01/14 12:04:10;;;;;;;12.20;3.83;;;13.10;77.20;;;;;;4919466;29;20284;-76
2024/01/14 12:06:39;;;;;;;5.37;3.40;;;13.10;77.00;;;;;;4920610;29;20343;-76
2024/01/14 12:09:07;;;;;;;5.90;3.57;;;13.10;76.70;;;;;;4919941;29;20222;-76
2024/01/14 12:11:33;;;;;;;7.63;3.17;;;13.10;76.40;;;;;;4920990;29;20206;-77
2024/01/14 12:13:59;;;;;;;4.53;3.60;;;13.10;76.40;;;;;;4920215;29;20193;-76
2024/01/14 12:16:25;;;;;;;6.63;3.40;;;13.10;76.40;;;;;;4919849;29;20195;-76
2024/01/14 12:18:51;;;;;;;7.20;3.60;;;13.10;76.40;;;;;;4920127;29;20206;-76
2024/01/14 12:21:19;;;;;;;5.50;3.67;;;13.10;76.40;;;;;;4919762;29;20901;-76
2024/01/14 12:23:45;;;;;;;6.73;3.53;;;13.10;76.50;;;;;;4919317;29;20182;-76
2024/01/14 12:26:13;;;;;;;8.17;3.60;;;13.10;76.60;;;;;;4920413;29;20178;-76
2024/01/14 12:28:40;;;;;;;7.80;3.60;;;13.10;76.60;;;;;;4919603;29;20276;-75
2024/01/14 12:31:06;;;;;;;4.87;3.43;;;13.10;76.70;;;;;;4918982;29;20175;-76
2024/01/14 12:33:33;;;;;;;5.13;3.50;;;13.10;76.60;;;;;;4920193;29;20170;-76
2024/01/14 12:36:02;;;;;;;5.47;3.40;;;13.10;76.70;;;;;;4919457;29;20265;-73
2024/01/14 12:38:27;;;;;;;5.43;3.77;;;13.10;76.70;;;;;;4920351;29;20180;-73
2024/01/14 12:40:54;;;;;;;7.73;3.93;;;13.10;76.70;;;;;;4919230;29;20201;-74
2024/01/14 12:43:20;;;;;;;5.43;3.50;;;13.10;76.80;;;;;;4919858;29;20177;-73